Ostby, North Dakota
Current Conditions -  °F | °C
As of 2:35 AM on Wednesday 22 Oct 2014 (Local Time) from KRUG Reporting Station
Clear Clear  
Wind Chill: 59°   Ceiling: Unl
Heat Index: 59°   Visibility: 10mi
Dew Point: 43°   Wind: 16mph
Humidity: 55%   Direction: 160°SSE
Pressure: 29.64"   Gusts: 24mph
Location:  48.5496°N, 100.255°W
Report Text: KRUG 220735Z AUTO 16014G21KT 10SM CLR 15/06 A2964 RMK AO2
Loading
Personal Weather Stations






























Interactive Weather Map
Tropical Storm Tracking
New forecast layout! Learn more

10-Day Weather Forecast

Advertisements
Track Severe Weather on mobile